createdAt,value
2022-08-21T00:04:11.833Z,13.40
2022-08-21T00:06:41.371Z,13.30
2022-08-21T00:09:10.189Z,13.30
2022-08-21T00:11:38.192Z,13.40
2022-08-21T00:14:07.971Z,13.40
2022-08-21T00:16:35.074Z,13.40
2022-08-21T00:19:04.279Z,13.40
2022-08-21T00:21:31.209Z,13.40
2022-08-21T00:24:00.466Z,13.40
2022-08-21T00:26:27.785Z,13.40
2022-08-21T00:28:54.596Z,13.40
2022-08-21T00:31:22.705Z,13.40
2022-08-21T00:33:49.672Z,13.40
2022-08-21T00:36:16.754Z,13.30
2022-08-21T00:38:43.497Z,13.20
2022-08-21T00:41:37.419Z,13.10
2022-08-21T00:43:58.660Z,13.00
2022-08-21T00:46:28.479Z,13.00
2022-08-21T00:48:58.824Z,13.00
2022-08-21T00:51:41.880Z,13.00
2022-08-21T00:54:18.876Z,13.10
2022-08-21T00:56:48.921Z,13.10
2022-08-21T00:59:18.680Z,13.20
2022-08-21T01:01:45.655Z,13.20
2022-08-21T01:04:13.652Z,13.20
2022-08-21T01:06:40.568Z,13.20
2022-08-21T01:09:07.384Z,13.20
2022-08-21T01:11:34.110Z,13.20
2022-08-21T01:14:01.862Z,13.20
2022-08-21T01:16:31.966Z,13.30
2022-08-21T01:18:58.644Z,13.30
2022-08-21T01:21:28.064Z,13.20
2022-08-21T01:23:57.068Z,13.20
2022-08-21T01:26:33.707Z,13.20
2022-08-21T01:29:08.067Z,13.10
2022-08-21T01:31:35.330Z,13.10
2022-08-21T01:34:02.144Z,13.10
2022-08-21T01:36:28.917Z,13.10
2022-08-21T01:38:56.370Z,13.10
2022-08-21T01:41:23.527Z,13.10
2022-08-21T01:43:50.365Z,13.10
2022-08-21T01:46:17.920Z,13.00
2022-08-21T01:48:44.825Z,13.00
2022-08-21T01:51:11.627Z,13.00
2022-08-21T01:53:38.565Z,13.00
2022-08-21T01:56:12.573Z,13.00
2022-08-21T01:58:40.762Z,13.00
2022-08-21T02:01:07.861Z,12.90
2022-08-21T02:03:35.515Z,12.80
2022-08-21T02:06:04.345Z,12.70
2022-08-21T02:08:31.437Z,12.70
2022-08-21T02:10:58.279Z,12.60
2022-08-21T02:13:25.038Z,12.50
2022-08-21T02:15:51.753Z,12.40
2022-08-21T02:18:19.224Z,12.30
2022-08-21T02:20:55.256Z,12.20
2022-08-21T02:23:27.172Z,12.10
2022-08-21T02:26:07.524Z,12.10
2022-08-21T02:28:35.399Z,12.10
2022-08-21T02:31:02.292Z,12.00
2022-08-21T02:33:34.196Z,12.00
2022-08-21T02:36:02.172Z,12.00
2022-08-21T02:38:35.524Z,12.00
2022-08-21T02:41:02.504Z,12.00
2022-08-21T02:43:29.732Z,12.00
2022-08-21T02:45:58.008Z,12.00
2022-08-21T02:48:31.854Z,12.10
2022-08-21T02:51:05.021Z,12.10
2022-08-21T02:53:40.588Z,12.00
2022-08-21T02:56:11.165Z,12.00
2022-08-21T02:58:42.625Z,12.00
2022-08-21T03:01:10.450Z,12.00
2022-08-21T03:03:40.114Z,11.90
2022-08-21T03:06:09.078Z,11.80
2022-08-21T03:08:36.305Z,11.80
2022-08-21T03:11:03.509Z,11.80
2022-08-21T03:13:30.555Z,11.80
2022-08-21T03:15:57.518Z,11.70
2022-08-21T03:18:27.621Z,11.70
2022-08-21T03:20:54.379Z,11.60
2022-08-21T03:23:21.339Z,11.60
2022-08-21T03:25:49.348Z,11.50
2022-08-21T03:28:20.481Z,11.50
2022-08-21T03:30:52.688Z,11.50
2022-08-21T03:33:20.618Z,11.40
2022-08-21T03:36:05.315Z,11.40
2022-08-21T03:38:33.608Z,11.50
2022-08-21T03:41:01.134Z,11.50
2022-08-21T03:43:30.968Z,11.50
2022-08-21T03:46:01.657Z,11.40
2022-08-21T03:48:28.793Z,11.30
2022-08-21T03:50:55.664Z,11.30
2022-08-21T03:53:22.435Z,11.30
2022-08-21T03:55:52.052Z,11.30
2022-08-21T03:58:22.143Z,11.30
2022-08-21T04:00:53.188Z,11.30
2022-08-21T04:03:22.953Z,11.30
2022-08-21T04:05:49.655Z,11.40
2022-08-21T04:08:19.444Z,11.30
2022-08-21T04:10:49.655Z,11.30
2022-08-21T04:13:16.905Z,11.20
2022-08-21T04:15:43.640Z,11.20
2022-08-21T04:18:10.841Z,11.20
2022-08-21T04:20:38.000Z,11.20
2022-08-21T04:23:04.969Z,11.10
2022-08-21T04:25:34.780Z,11.10
2022-08-21T04:28:02.735Z,11.10
2022-08-21T04:30:29.823Z,11.20
2022-08-21T04:33:00.845Z,11.10
2022-08-21T04:35:29.083Z,11.10
2022-08-21T04:37:56.012Z,11.10
2022-08-21T04:40:25.153Z,11.10
2022-08-21T04:43:02.414Z,11.20
2022-08-21T04:45:35.971Z,11.30
2022-08-21T04:48:06.963Z,11.30
2022-08-21T04:50:48.566Z,11.40
2022-08-21T04:53:37.691Z,11.50
2022-08-21T04:56:27.573Z,11.60
2022-08-21T04:58:57.883Z,11.70
2022-08-21T05:01:29.949Z,11.80
2022-08-21T05:04:00.733Z,11.80
2022-08-21T05:06:31.600Z,11.90
2022-08-21T05:09:01.874Z,12.00
2022-08-21T05:11:32.602Z,12.10
2022-08-21T05:13:59.721Z,12.30
2022-08-21T05:16:36.841Z,12.40
2022-08-21T05:19:05.887Z,12.60
2022-08-21T05:21:33.845Z,12.80
2022-08-21T05:24:00.646Z,12.90
2022-08-21T05:26:27.425Z,13.10
2022-08-21T05:28:54.152Z,13.30
2022-08-21T05:31:20.984Z,13.40
2022-08-21T05:33:47.719Z,13.60
2022-08-21T05:36:19.117Z,13.70
2022-08-21T05:38:45.811Z,13.80
2022-08-21T05:41:12.709Z,14.00
2022-08-21T05:43:39.576Z,14.20
2022-08-21T05:46:10.258Z,14.50
2022-08-21T05:48:37.351Z,14.70
2022-08-21T05:51:10.289Z,14.90
2022-08-21T05:53:37.881Z,15.10
2022-08-21T05:56:04.888Z,15.30
2022-08-21T05:58:33.676Z,15.40
2022-08-21T06:01:03.206Z,15.70
2022-08-21T06:03:33.014Z,16.10
2022-08-21T06:05:59.903Z,16.90
2022-08-21T06:08:27.127Z,17.70
2022-08-21T06:13:23.143Z,18.60
2022-08-21T06:15:50.663Z,20.40
2022-08-21T06:18:17.972Z,21.30
2022-08-21T06:20:45.152Z,21.90
2022-08-21T06:23:11.863Z,22.50
2022-08-21T06:25:38.563Z,23.00
2022-08-21T06:28:11.808Z,23.40
2022-08-21T06:30:44.134Z,23.60
2022-08-21T06:33:11.261Z,23.70
2022-08-21T06:35:41.496Z,23.80
2022-08-21T06:38:11.776Z,23.90
2022-08-21T06:40:44.840Z,23.90
2022-08-21T06:43:16.483Z,23.70
2022-08-21T06:45:43.909Z,23.30
2022-08-21T06:48:11.424Z,23.40
2022-08-21T06:50:40.793Z,23.50
2022-08-21T06:53:13.143Z,23.90
2022-08-21T06:55:41.419Z,24.30
2022-08-21T06:58:09.135Z,24.60
2022-08-21T07:00:38.981Z,24.30
2022-08-21T07:03:05.670Z,24.30
2022-08-21T07:05:32.745Z,24.70
2022-08-21T07:08:00.390Z,24.90
2022-08-21T07:10:28.410Z,25.00
2022-08-21T07:13:00.336Z,25.20
2022-08-21T07:15:31.207Z,25.30
2022-08-21T07:18:00.036Z,25.20
2022-08-21T07:20:28.161Z,25.70
2022-08-21T07:22:56.110Z,26.00
2022-08-21T07:25:22.948Z,26.20
2022-08-21T07:27:49.640Z,26.40
2022-08-21T07:30:16.348Z,26.30
2022-08-21T07:32:52.747Z,26.40
2022-08-21T07:35:23.131Z,26.60
2022-08-21T07:37:52.729Z,26.00
2022-08-21T07:40:19.734Z,26.10
2022-08-21T07:42:50.803Z,26.50
2022-08-21T07:45:18.301Z,26.70
2022-08-21T07:47:51.918Z,26.80
2022-08-21T07:50:21.143Z,26.90
2022-08-21T07:52:48.312Z,26.30
2022-08-21T07:55:19.581Z,25.90
2022-08-21T07:57:47.427Z,26.30
2022-08-21T08:00:17.763Z,26.50
2022-08-21T08:02:51.307Z,26.70
2022-08-21T08:05:22.832Z,27.30
2022-08-21T08:07:49.535Z,27.80
2022-08-21T08:10:17.042Z,27.80
2022-08-21T08:12:45.004Z,27.80
2022-08-21T08:15:18.112Z,28.10
2022-08-21T08:17:47.828Z,28.20
2022-08-21T08:20:16.683Z,28.30
2022-08-21T08:22:44.071Z,28.60
2022-08-21T08:25:18.155Z,28.80
2022-08-21T08:27:45.023Z,28.30
2022-08-21T08:30:15.370Z,28.40
2022-08-21T08:32:42.749Z,28.30
2022-08-21T08:35:10.411Z,28.60
2022-08-21T08:37:47.370Z,28.30
2022-08-21T08:40:43.159Z,28.50
2022-08-21T08:43:10.979Z,28.30
2022-08-21T08:45:50.367Z,27.80
2022-08-21T08:48:36.196Z,28.10
2022-08-21T08:51:07.074Z,28.30
2022-08-21T08:53:55.376Z,28.50
2022-08-21T08:56:28.280Z,28.70
2022-08-21T08:58:59.750Z,28.90
2022-08-21T09:01:27.387Z,28.90
2022-08-21T09:03:54.934Z,29.10
2022-08-21T09:06:30.121Z,28.20
2022-08-21T09:09:13.075Z,27.80
2022-08-21T09:12:26.088Z,27.70
2022-08-21T09:15:21.493Z,28.10
2022-08-21T09:18:18.468Z,28.80
2022-08-21T09:21:16.801Z,29.00
2022-08-21T09:24:11.800Z,29.20
2022-08-21T09:26:51.407Z,29.10
2022-08-21T09:29:23.136Z,29.00
2022-08-21T09:31:50.025Z,29.20
2022-08-21T09:34:26.832Z,28.30
2022-08-21T09:36:54.144Z,28.70
2022-08-21T09:39:33.256Z,29.10
2022-08-21T09:42:11.553Z,29.50
2022-08-21T09:44:42.580Z,29.60
2022-08-21T09:47:13.780Z,29.20
2022-08-21T09:49:43.013Z,28.50
2022-08-21T09:52:25.299Z,28.00
2022-08-21T09:54:55.316Z,28.10
2022-08-21T09:57:39.384Z,28.40
2022-08-21T10:00:22.555Z,28.80
2022-08-21T10:02:49.690Z,29.00
2022-08-21T10:05:25.959Z,29.50
2022-08-21T10:07:52.968Z,30.00
2022-08-21T10:10:27.392Z,30.80
2022-08-21T10:13:18.788Z,31.20
2022-08-21T10:15:56.394Z,31.70
2022-08-21T10:18:38.063Z,31.50
2022-08-21T10:21:28.048Z,30.70
2022-08-21T10:24:31.721Z,30.30
2022-08-21T10:27:14.838Z,30.20
2022-08-21T10:30:12.444Z,30.10
2022-08-21T10:32:57.965Z,29.50
2022-08-21T10:35:35.230Z,29.00
2022-08-21T10:38:23.515Z,29.20
2022-08-21T10:41:40.537Z,29.10
2022-08-21T10:44:38.902Z,29.70
2022-08-21T10:47:35.640Z,30.10
2022-08-21T10:50:29.097Z,29.80
2022-08-21T10:53:10.626Z,30.00
2022-08-21T10:55:44.613Z,30.20
2022-08-21T10:58:19.960Z,30.20
2022-08-21T11:00:52.342Z,29.70
2022-08-21T11:03:22.854Z,29.90
2022-08-21T11:05:53.786Z,29.60
2022-08-21T11:08:34.608Z,29.80
2022-08-21T11:11:17.981Z,29.40
2022-08-21T11:14:09.245Z,29.90
2022-08-21T11:16:54.302Z,30.50
2022-08-21T11:19:34.472Z,30.40
2022-08-21T11:22:32.907Z,30.10
2022-08-21T11:25:20.770Z,29.60
2022-08-21T11:28:26.476Z,29.20
2022-08-21T11:31:14.692Z,29.20
2022-08-21T11:34:06.291Z,28.70
2022-08-21T11:36:47.521Z,28.40
2022-08-21T11:39:33.314Z,29.00
2022-08-21T11:42:10.424Z,29.60
2022-08-21T11:44:56.040Z,29.80
2022-08-21T11:47:53.310Z,29.70
2022-08-21T11:50:35.424Z,29.70
2022-08-21T11:53:14.296Z,29.90
2022-08-21T11:55:49.804Z,29.00
2022-08-21T11:58:26.607Z,28.90
2022-08-21T12:01:01.528Z,28.90
2022-08-21T12:03:30.410Z,29.60
2022-08-21T12:06:10.272Z,29.70
2022-08-21T12:08:39.854Z,29.70
2022-08-21T12:11:07.888Z,29.50
2022-08-21T12:13:42.725Z,30.00
2022-08-21T12:16:34.026Z,30.60
2022-08-21T12:19:07.577Z,31.20
2022-08-21T12:21:35.684Z,31.50
2022-08-21T12:24:14.591Z,31.50
2022-08-21T12:26:53.511Z,31.50
2022-08-21T12:29:32.525Z,31.00
2022-08-21T12:32:00.918Z,30.60
2022-08-21T12:34:41.262Z,29.70
2022-08-21T12:37:34.147Z,29.90
2022-08-21T12:40:03.486Z,30.10
2022-08-21T12:42:44.239Z,30.50
2022-08-21T12:45:30.672Z,29.60
2022-08-21T12:48:08.288Z,29.70
2022-08-21T12:50:58.303Z,30.00
2022-08-21T12:53:52.729Z,29.60
2022-08-21T12:56:22.416Z,29.60
2022-08-21T12:58:56.831Z,30.50
2022-08-21T13:01:37.060Z,30.10
2022-08-21T13:04:12.049Z,30.10
2022-08-21T13:06:45.651Z,30.20
2022-08-21T13:09:15.178Z,30.40
2022-08-21T13:11:45.360Z,30.60
2022-08-21T13:14:27.956Z,31.10
2022-08-21T13:16:56.925Z,31.80
2022-08-21T13:19:25.035Z,31.60
2022-08-21T13:21:53.547Z,31.90
2022-08-21T13:24:41.665Z,32.10
2022-08-21T13:27:28.608Z,32.80
2022-08-21T13:30:12.876Z,33.00
2022-08-21T13:32:56.472Z,33.60
2022-08-21T13:35:31.341Z,33.90
2022-08-21T13:37:59.775Z,34.20
2022-08-21T13:40:31.381Z,34.50
2022-08-21T13:42:58.649Z,34.40
2022-08-21T13:45:34.348Z,34.20
2022-08-21T13:48:03.172Z,33.80
2022-08-21T13:50:37.242Z,33.90
2022-08-21T13:53:19.928Z,34.40
2022-08-21T13:55:50.565Z,34.20
2022-08-21T13:58:30.659Z,34.20
2022-08-21T14:01:07.590Z,34.30
2022-08-21T14:03:43.768Z,34.30
2022-08-21T14:06:18.406Z,34.70
2022-08-21T14:08:51.981Z,34.70
2022-08-21T14:11:19.152Z,34.80
2022-08-21T14:14:23.407Z,34.80
2022-08-21T14:17:11.200Z,34.40
2022-08-21T14:19:56.200Z,34.80
2022-08-21T14:22:29.422Z,35.20
2022-08-21T14:25:27.758Z,35.60
2022-08-21T14:27:56.263Z,34.90
2022-08-21T14:30:36.235Z,33.70
2022-08-21T14:33:08.587Z,34.00
2022-08-21T14:35:35.531Z,34.50
2022-08-21T14:38:02.310Z,35.30
2022-08-21T14:40:29.236Z,35.00
2022-08-21T14:42:56.190Z,34.40
2022-08-21T14:45:29.112Z,34.90
2022-08-21T14:47:57.813Z,35.00
2022-08-21T14:50:24.859Z,35.10
2022-08-21T14:52:57.479Z,34.90
2022-08-21T14:55:24.980Z,34.20
2022-08-21T14:57:53.961Z,33.60
2022-08-21T15:00:27.095Z,33.40
2022-08-21T15:03:02.456Z,34.20
2022-08-21T15:05:33.708Z,34.90
2022-08-21T15:08:00.960Z,35.80
2022-08-21T15:10:32.247Z,36.40
2022-08-21T15:12:59.248Z,36.70
2022-08-21T15:15:26.204Z,36.50
2022-08-21T15:17:52.898Z,36.90
2022-08-21T15:20:19.792Z,37.30
2022-08-21T15:22:47.638Z,37.20
2022-08-21T15:25:17.334Z,37.40
2022-08-21T15:27:44.100Z,37.30
2022-08-21T15:30:13.834Z,36.90
2022-08-21T15:32:42.218Z,36.10
2022-08-21T15:35:09.568Z,36.30
2022-08-21T15:37:36.802Z,36.30
2022-08-21T15:40:05.720Z,36.40
2022-08-21T15:42:32.541Z,36.20
2022-08-21T15:44:59.486Z,36.50
2022-08-21T15:47:35.105Z,36.90
2022-08-21T15:50:04.107Z,37.30
2022-08-21T15:52:34.120Z,36.80
2022-08-21T15:55:00.848Z,37.20
2022-08-21T15:57:28.230Z,36.40
2022-08-21T15:59:58.969Z,36.40
2022-08-21T16:02:31.186Z,36.40
2022-08-21T16:04:58.974Z,35.90
2022-08-21T16:07:26.218Z,34.90
2022-08-21T16:09:53.007Z,34.00
2022-08-21T16:12:26.298Z,32.70
2022-08-21T16:14:54.608Z,31.50
2022-08-21T16:17:25.822Z,30.40
2022-08-21T16:19:55.817Z,29.80
2022-08-21T16:22:22.731Z,29.50
2022-08-21T16:24:52.641Z,29.20
2022-08-21T16:27:19.769Z,28.80
2022-08-21T16:29:49.971Z,28.60
2022-08-21T16:32:17.261Z,28.20
2022-08-21T16:34:48.597Z,28.20
2022-08-21T16:37:23.888Z,28.10
2022-08-21T16:39:52.020Z,28.00
2022-08-21T16:42:24.513Z,27.90
2022-08-21T16:44:51.816Z,27.90
2022-08-21T16:47:26.824Z,27.90
2022-08-21T16:49:54.461Z,27.70
2022-08-21T16:52:21.256Z,27.50
2022-08-21T16:54:47.959Z,27.40
2022-08-21T16:57:14.966Z,27.40
2022-08-21T16:59:42.285Z,27.20
2022-08-21T17:02:26.980Z,27.00
2022-08-21T17:04:53.898Z,26.70
2022-08-21T17:07:20.621Z,26.50
2022-08-21T17:09:47.306Z,26.50
2022-08-21T17:12:17.824Z,26.40
2022-08-21T17:14:48.624Z,26.40
2022-08-21T17:17:16.241Z,26.30
2022-08-21T17:19:43.642Z,26.20
2022-08-21T17:22:10.963Z,26.00
2022-08-21T17:24:38.067Z,25.80
2022-08-21T17:27:07.674Z,25.60
2022-08-21T17:29:40.679Z,25.30
2022-08-21T17:32:11.197Z,25.10
2022-08-21T17:34:41.816Z,24.80
2022-08-21T17:37:08.622Z,24.60
2022-08-21T17:39:36.125Z,24.30
2022-08-21T17:42:08.257Z,24.10
2022-08-21T17:44:39.087Z,24.00
2022-08-21T17:47:07.212Z,23.90
2022-08-21T17:49:34.565Z,23.80
2022-08-21T17:52:01.263Z,23.60
2022-08-21T17:54:28.356Z,23.50
2022-08-21T17:56:56.385Z,23.50
2022-08-21T17:59:27.365Z,23.50
2022-08-21T18:01:57.524Z,23.40
2022-08-21T18:04:24.503Z,23.20
2022-08-21T18:06:51.162Z,23.10
2022-08-21T18:09:18.345Z,22.80
2022-08-21T18:11:45.127Z,22.70
2022-08-21T18:14:12.695Z,22.50
2022-08-21T18:16:39.727Z,22.30
2022-08-21T18:19:10.669Z,22.20
2022-08-21T18:21:37.587Z,22.20
2022-08-21T18:24:04.720Z,22.20
2022-08-21T18:26:34.868Z,22.10
2022-08-21T18:29:07.926Z,22.00
2022-08-21T18:31:37.067Z,21.90
2022-08-21T18:34:26.604Z,21.70
2022-08-21T18:36:54.092Z,21.60
2022-08-21T18:39:36.441Z,21.60
2022-08-21T18:42:09.336Z,21.60
2022-08-21T18:44:37.486Z,21.50
2022-08-21T18:47:14.470Z,21.50
2022-08-21T18:49:41.754Z,21.50
2022-08-21T18:52:09.746Z,21.60
2022-08-21T18:54:37.327Z,21.70
2022-08-21T18:57:09.027Z,21.90
2022-08-21T18:59:36.321Z,21.90
2022-08-21T19:02:07.974Z,22.00
2022-08-21T19:04:44.818Z,22.10
2022-08-21T19:07:13.677Z,22.20
2022-08-21T19:09:42.172Z,22.20
2022-08-21T19:12:18.017Z,22.20
2022-08-21T19:14:44.925Z,22.20
2022-08-21T19:17:13.241Z,22.10
2022-08-21T19:19:40.235Z,22.10
2022-08-21T19:22:11.033Z,22.10
2022-08-21T19:24:38.971Z,22.00
2022-08-21T19:27:06.235Z,22.10
2022-08-21T19:29:34.513Z,22.10
2022-08-21T19:32:21.212Z,22.00
2022-08-21T19:34:49.880Z,22.00
2022-08-21T19:37:20.366Z,21.90
2022-08-21T19:39:50.152Z,21.80
2022-08-21T19:42:21.157Z,21.80
2022-08-21T19:44:54.239Z,21.80
2022-08-21T19:47:24.720Z,21.70
2022-08-21T19:49:59.152Z,21.70
2022-08-21T19:52:26.214Z,21.60
2022-08-21T19:54:53.223Z,21.50
2022-08-21T19:57:20.008Z,21.40
2022-08-21T19:59:46.739Z,21.40
2022-08-21T20:02:19.698Z,21.40
2022-08-21T20:04:54.975Z,21.20
2022-08-21T20:07:26.466Z,21.00
2022-08-21T20:09:54.432Z,20.70
2022-08-21T20:12:25.980Z,20.40
2022-08-21T20:14:53.941Z,20.20
2022-08-21T20:17:21.741Z,20.10
2022-08-21T20:19:52.663Z,19.90
2022-08-21T20:22:21.368Z,19.70
2022-08-21T20:24:48.142Z,19.60
2022-08-21T20:27:27.411Z,19.40
2022-08-21T20:29:54.527Z,19.40
2022-08-21T20:35:13.582Z,19.10
2022-08-21T20:37:40.595Z,19.00
2022-08-21T20:40:10.853Z,18.90
2022-08-21T20:42:44.934Z,18.90
2022-08-21T20:45:18.588Z,18.70
2022-08-21T20:47:45.548Z,18.60
2022-08-21T20:50:17.965Z,18.50
2022-08-21T20:52:49.590Z,18.40
2022-08-21T20:55:29.315Z,18.30
2022-08-21T20:58:02.999Z,18.30
2022-08-21T21:00:34.797Z,18.20
2022-08-21T21:03:31.155Z,18.20
2022-08-21T21:06:09.199Z,18.10
2022-08-21T21:08:39.811Z,18.10
2022-08-21T21:11:16.055Z,18.10
2022-08-21T21:14:00.340Z,18.10
2022-08-21T21:16:41.074Z,18.20
2022-08-21T21:19:37.527Z,18.40
2022-08-21T21:22:13.330Z,18.60
2022-08-21T21:24:42.806Z,18.70
2022-08-21T21:27:18.638Z,18.80
2022-08-21T21:33:07.523Z,18.90
2022-08-21T21:36:01.644Z,18.90
2022-08-21T21:38:39.522Z,18.80
2022-08-21T21:41:32.167Z,18.90
2022-08-21T21:44:31.084Z,18.90
2022-08-21T21:47:17.112Z,19.00
2022-08-21T21:50:21.457Z,19.10
2022-08-21T21:53:01.839Z,19.20
2022-08-21T21:56:02.833Z,19.10
2022-08-21T21:58:58.513Z,19.20
2022-08-21T22:01:28.433Z,19.10
2022-08-21T22:04:23.438Z,19.10
2022-08-21T22:07:08.476Z,18.90
2022-08-21T22:09:45.773Z,18.70
2022-08-21T22:12:28.130Z,18.60
2022-08-21T22:14:54.941Z,18.60
2022-08-21T22:17:35.838Z,18.60
2022-08-21T22:20:35.463Z,18.60
2022-08-21T22:23:05.013Z,18.70
2022-08-21T22:25:38.732Z,18.70
2022-08-21T22:28:13.690Z,18.80
2022-08-21T22:30:40.439Z,18.80
2022-08-21T22:33:15.462Z,18.90
2022-08-21T22:35:51.646Z,18.90
2022-08-21T22:38:39.458Z,18.90
2022-08-21T22:41:13.142Z,18.90
2022-08-21T22:44:02.101Z,18.90
2022-08-21T22:46:45.706Z,19.00
2022-08-21T22:49:25.208Z,18.90
2022-08-21T22:51:57.715Z,18.90
2022-08-21T22:54:35.038Z,18.90
2022-08-21T22:57:06.430Z,18.90
2022-08-21T22:59:52.800Z,18.80
2022-08-21T23:02:49.794Z,18.90
2022-08-21T23:05:27.102Z,18.90
2022-08-21T23:08:24.054Z,18.90
2022-08-21T23:10:58.212Z,18.90
2022-08-21T23:13:27.624Z,18.90
2022-08-21T23:16:10.037Z,18.90
2022-08-21T23:18:51.466Z,18.90
2022-08-21T23:21:34.032Z,18.90
2022-08-21T23:24:03.810Z,18.90
2022-08-21T23:26:55.672Z,18.90
2022-08-21T23:29:26.072Z,19.00
2022-08-21T23:32:02.698Z,19.10
2022-08-21T23:34:44.692Z,19.10
2022-08-21T23:37:51.416Z,19.10
2022-08-21T23:40:50.978Z,19.10
2022-08-21T23:43:50.890Z,18.90
2022-08-21T23:46:42.051Z,18.90
2022-08-21T23:49:54.605Z,18.90
2022-08-21T23:52:36.512Z,18.90
2022-08-21T23:55:36.496Z,18.90
2022-08-21T23:58:12.979Z,18.80
